Ailine Elizabeth — WCX4766 — position and weather

sailwx.info

Track history (hours):
 
Tides and Currents Weather Stations Pressure Air Temp Water Temp Dewpoint Dewpoint Depression Visibility Wind Speed Wind Dir Waves Ship Positions

Ailine Elizabeth

Owner: MARINE EXPRESS INC, Pittsburg, CA. More information available from US FCC via Universal Licensing System and Coast Guard Vessel Documentation Center.

Last reported at 2017-Oct-14 21:06 UTC. Time now 2017-Oct-17 23:58 UTC.
Position N 37°47' W 122°17'.

Length 25 m; draft 2 m.

MMSI: 367179250.

Date/timePositionNaut miles runAvg speedWind from/ knotsBaromVisibWave heightAir tempDewpointWater temp
2017-Oct-14 21:06N 37°47' W 122°17'0 0.1
2017-Oct-14 21:01N 37°47' W 122°17'4 7.2
2017-Oct-14 20:30N 37°45' W 122°21'0 0.7
2017-Oct-14 20:00N 37°45' W 122°21'0 0.6
2017-Oct-14 19:30N 37°45' W 122°21'4 7.1
2017-Oct-14 19:00N 37°48' W 122°17'0 0.3
2017-Oct-14 18:30N 37°47' W 122°17'0 0.0
2017-Oct-14 18:00N 37°47' W 122°17'0 0.0
2017-Oct-14 17:30N 37°47' W 122°17'0 0.0
2017-Oct-13 22:28N 37°47' W 122°17'3 7.0
2017-Oct-13 22:00N 37°45' W 122°20'3 6.7
2017-Oct-13 21:30N 37°48' W 122°22'713.0
2017-Oct-13 21:00N 37°54' W 122°26'1 1.4
2017-Oct-13 20:30N 37°54' W 122°27'612.1
2017-Oct-13 20:00N 37°50' W 122°22'4 2.6
2017-Oct-13 18:23N 37°47' W 122°17'0 0.0
2017-Oct-13 18:00N 37°47' W 122°17'0 0.1
2017-Oct-13 17:31N 37°47' W 122°17'2 4.6
2017-Oct-13 17:00N 37°48' W 122°20'2 4.1
2017-Oct-13 16:30N 37°48' W 122°23'1 1.7
2017-Oct-13 16:00N 37°48' W 122°24'0 0.1
2017-Oct-13 15:30N 37°48' W 122°24'1 1.6
2017-Oct-13 15:01N 37°48' W 122°23'2 4.4
2017-Oct-13 14:30N 37°48' W 122°20'2 4.7
2017-Oct-13 14:00N 37°47' W 122°17'0 0.0
2017-Oct-13 06:41N 37°47' W 122°17'2 8.5
2017-Oct-13 06:30N 37°48' W 122°19'3 6.1
2017-Oct-13 06:00N 37°45' W 122°21'3 6.8
2017-Oct-13 05:31N 37°48' W 122°18'1 0.3
2017-Oct-13 03:24N 37°47' W 122°17'4 9.4
2017-Oct-13 03:00N 37°48' W 122°22'1 3.0
2017-Oct-13 02:30N 37°48' W 122°24'5 9.8
2017-Oct-13 02:00N 37°48' W 122°18'3 6.2
2017-Oct-13 01:31N 37°48' W 122°21'1 2.7
2017-Oct-13 01:01N 37°48' W 122°20'2 3.8
2017-Oct-13 00:30N 37°46' W 122°20'2 4.9
2017-Oct-13 00:00N 37°48' W 122°18'0 0.2
2017-Oct-12 22:20N 37°47' W 122°17'3 9.1
2017-Oct-12 22:00N 37°48' W 122°21'3 5.4
2017-Oct-12 21:30N 37°45' W 122°21'0 0.2
2017-Oct-12 21:00N 37°45' W 122°21'1 1.3
2017-Oct-12 20:30N 37°46' W 122°22'3 5.6
2017-Oct-12 20:00N 37°48' W 122°19'1 2.3
2017-Oct-12 19:30N 37°47' W 122°17'2 4.6
2017-Oct-12 19:00N 37°48' W 122°20'2 3.1
2017-Oct-12 18:30N 37°46' W 122°20'3 5.6
2017-Oct-12 18:00N 37°47' W 122°17'0 0.0
2017-Oct-12 17:31N 37°47' W 122°17'0 0.0
2017-Oct-12 08:18N 37°47' W 122°17'2 8.1
2017-Oct-12 08:00N 37°48' W 122°20'1 2.9
2017-Oct-12 07:31N 37°48' W 122°18'1 0.8
2017-Oct-12 06:28N 37°47' W 122°17'3 7.0
2017-Oct-12 06:00N 37°46' W 122°21'3 6.3
2017-Oct-12 05:30N 37°47' W 122°17'0 0.0
2017-Oct-12 01:32N 37°47' W 122°17'0 0.2
2017-Oct-12 01:31N 37°47' W 122°17'0 0.7
2017-Oct-12 01:00N 37°48' W 122°18'3 5.8
2017-Oct-12 00:31N 37°45' W 122°20'3 6.1
2017-Oct-12 00:00N 37°47' W 122°17'0 0.0
2017-Oct-11 22:32N 37°47' W 122°17'0 0.0
2017-Oct-11 22:30N 37°47' W 122°17'3 5.6
2017-Oct-11 22:01N 37°46' W 122°20'0 0.0
2017-Oct-11 21:31N 37°46' W 122°20'3 5.6
2017-Oct-11 21:00N 37°47' W 122°17'0 0.0
2017-Oct-11 20:30N 37°47' W 122°17'0 0.0
2017-Oct-11 20:00N 37°47' W 122°17'0 0.0
2017-Oct-11 19:30N 37°47' W 122°17'0 0.0
2017-Oct-11 19:00N 37°47' W 122°17'3 5.9
2017-Oct-11 18:31N 37°45' W 122°20'2 4.9
2017-Oct-11 18:01N 37°48' W 122°19'1 1.1
2017-Oct-11 17:30N 37°48' W 122°20'5 9.0
2017-Oct-11 17:00N 37°43' W 122°21'5 0.3
2017-Oct-11 00:00N 37°48' W 122°19'3 6.9
2017-Oct-10 23:30N 37°47' W 122°23'5 9.6
2017-Oct-10 23:00N 37°43' W 122°20'5 9.8
2017-Oct-10 22:30N 37°48' W 122°18'0 0.2
2017-Oct-10 20:52N 37°47' W 122°17'0 0.1
2017-Oct-10 20:30N 37°47' W 122°17'5 9.3
2017-Oct-10 20:00N 37°47' W 122°23'5 9.4
2017-Oct-10 19:31N 37°43' W 122°20'5 9.5
2017-Oct-10 19:00N 37°48' W 122°18'1 1.0
2017-Oct-10 18:03N 37°47' W 122°17'0 0.0
2017-Oct-10 18:00N 37°47' W 122°17'3 6.7
2017-Oct-10 17:30N 37°48' W 122°22'0 0.0
2017-Oct-10 17:00N 37°48' W 122°22'0 0.2
2017-Oct-10 16:30N 37°48' W 122°22'0 0.1
2017-Oct-10 16:00N 37°48' W 122°22'0 0.0
2017-Oct-10 15:30N 37°48' W 122°22'3 5.2
2017-Oct-10 15:00N 37°45' W 122°20'3 3.2
2017-Oct-10 14:00N 37°47' W 122°17'0 0.0
2017-Oct-10 01:04N 37°47' W 122°17'0 1.0
2017-Oct-10 01:00N 37°47' W 122°17'3 6.7
2017-Oct-10 00:30N 37°45' W 122°20'3 6.9
2017-Oct-10 00:01N 37°48' W 122°17'0 0.0
2017-Oct-09 18:21N 37°47' W 122°17'2 5.9
2017-Oct-09 18:01N 37°48' W 122°20'5 9.7
2017-Oct-09 17:30N 37°43' W 122°20'5 9.5
2017-Oct-09 17:00N 37°48' W 122°18'0 0.8
2017-Oct-09 16:30N 37°47' W 122°17'0 0.0
2017-Oct-08 14:49N 37°47' W 122°17'2 5.5
2017-Oct-08 14:30N 37°48' W 122°19'2 5.0
2017-Oct-08 14:00N 37°45' W 122°20'3 6.2
2017-Oct-08 13:30N 37°47' W 122°17'0 0.0
2017-Oct-08 13:01N 37°47' W 122°17'0 0.0
2017-Oct-08 03:21N 37°47' W 122°17'2 7.0
2017-Oct-08 03:00N 37°47' W 122°20'2 4.5
2017-Oct-08 02:30N 37°47' W 122°23'0 0.0
2017-Oct-08 02:00N 37°47' W 122°23'2 4.8
2017-Oct-08 01:30N 37°45' W 122°21'2 4.8
2017-Oct-08 01:00N 37°47' W 122°23'0 0.3
2017-Oct-08 00:30N 37°47' W 122°23'0 0.0
2017-Oct-08 00:00N 37°47' W 122°23'3 5.0
2017-Oct-07 23:30N 37°45' W 122°21'0 0.4
2017-Oct-07 23:00N 37°45' W 122°21'4 0.8
2017-Oct-07 18:11N 37°47' W 122°17'1 4.1
2017-Oct-07 18:00N 37°48' W 122°18'4 8.7
2017-Oct-07 17:30N 37°44' W 122°21'0 0.3
2017-Oct-07 17:00N 37°43' W 122°21'2 4.6
2017-Oct-07 16:30N 37°46' W 122°20'3 6.1
2017-Oct-07 16:01N 37°47' W 122°17'0 0.0
2017-Oct-07 15:30N 37°47' W 122°17'0 0.0
2017-Oct-07 15:01N 37°47' W 122°17'0 0.0
2017-Oct-06 22:42N 37°47' W 122°17'0 0.0
2017-Oct-06 22:30N 37°47' W 122°17'3 6.5
2017-Oct-06 22:01N 37°45' W 122°20'0 0.1
2017-Oct-06 21:30N 37°45' W 122°20'0 0.1
2017-Oct-06 21:00N 37°45' W 122°20'0 0.3
2017-Oct-06 20:31N 37°45' W 122°20'1 2.3
2017-Oct-06 20:00N 37°46' W 122°20'2 4.6
2017-Oct-06 19:30N 37°48' W 122°18'1 1.7
2017-Oct-06 19:00N 37°47' W 122°17'0 0.1
2017-Oct-06 18:30N 37°47' W 122°17'3 6.8
2017-Oct-06 18:00N 37°45' W 122°20'1 2.5
2017-Oct-06 17:30N 37°45' W 122°21'3 5.9
2017-Oct-06 17:00N 37°48' W 122°19'1 0.9
2017-Oct-06 15:32N 37°47' W 122°17'0 0.2
2017-Oct-06 15:31N 37°47' W 122°17'4 7.6
2017-Oct-06 15:00N 37°46' W 122°21'2 3.6
2017-Oct-06 14:30N 37°47' W 122°23'5 9.2
2017-Oct-06 14:00N 37°47' W 122°17'0 0.0
2017-Oct-06 13:30N 37°47' W 122°17'0 0.0
2017-Oct-06 13:01N 37°47' W 122°17'0 0.0
2017-Oct-06 12:31N 37°47' W 122°17'2 3.9
2017-Oct-06 12:00N 37°48' W 122°20'3 5.2
2017-Oct-06 11:30N 37°46' W 122°21'4 7.5
2017-Oct-06 11:01N 37°47' W 122°17'0 0.0
2017-Oct-06 08:36N 37°47' W 122°17'0 2.6
2017-Oct-06 08:30N 37°48' W 122°18'4 7.2
2017-Oct-06 08:00N 37°45' W 122°21'2 4.1
2017-Oct-06 07:31N 37°47' W 122°20'2 4.9
2017-Oct-06 07:01N 37°47' W 122°17'0 0.0
2017-Oct-06 03:15N 37°47' W 122°17'2 9.6
2017-Oct-06 03:00N 37°47' W 122°20'2 4.9
2017-Oct-06 02:30N 37°47' W 122°23'3 6.4
2017-Oct-06 02:01N 37°48' W 122°19'2 0.4
2017-Oct-05 21:56N 37°47' W 122°17'2 4.7
2017-Oct-05 21:31N 37°48' W 122°20'3 6.7
2017-Oct-05 21:00N 37°45' W 122°21'4 8.1
2017-Oct-05 20:30N 37°47' W 122°17'4 8.5
2017-Oct-05 20:00N 37°44' W 122°21'0 0.2
2017-Oct-05 19:30N 37°44' W 122°21'0 0.2
2017-Oct-05 19:00N 37°44' W 122°21'3 5.3
2017-Oct-05 18:30N 37°47' W 122°20'2 5.0
2017-Oct-05 18:01N 37°47' W 122°17'0 0.0
2017-Oct-05 17:30N 37°47' W 122°17'0 0.0
2017-Oct-05 06:41N 37°48' W 122°17'211.9
2017-Oct-05 06:30N 37°48' W 122°20'3 5.6
2017-Oct-05 06:00N 37°49' W 122°23'3 6.6
2017-Oct-05 05:30N 37°48' W 122°19'2 3.4
2017-Oct-05 05:00N 37°47' W 122°17'0 0.0
2017-Oct-05 00:52N 37°47' W 122°17'3 8.0
2017-Oct-05 00:30N 37°48' W 122°21'713.1
2017-Oct-05 00:00N 37°54' W 122°24'1 2.8
2017-Oct-04 23:30N 37°55' W 122°22'0 0.2
2017-Oct-04 23:00N 37°55' W 122°22'3 6.8
2017-Oct-04 22:30N 37°52' W 122°24'612.8
2017-Oct-04 22:00N 37°48' W 122°18'0 0.9
2017-Oct-04 21:30N 37°47' W 122°17'  
Track history (hours):
 
Tides and Currents Weather Stations Pressure Air Temp Water Temp Dewpoint Dewpoint Depression Visibility Wind Speed Wind Dir Waves Ship Positions

Ailine Elizabeth

Owner: MARINE EXPRESS INC, Pittsburg, CA. More information available from US FCC via Universal Licensing System and Coast Guard Vessel Documentation Center.

Last reported at 2017-Oct-14 21:06 UTC. Time now 2017-Oct-17 23:58 UTC.
Position N 37°47' W 122°17'.

Length 25 m; draft 2 m.

MMSI: 367179250.

Date/timePositionNaut miles runAvg speedWind from/ knotsBaromVisibWave heightAir tempDewpointWater temp
2017-Oct-14 21:06N 37°47' W 122°17'0 0.1
2017-Oct-14 21:01N 37°47' W 122°17'4 7.2
2017-Oct-14 20:30N 37°45' W 122°21'0 0.7
2017-Oct-14 20:00N 37°45' W 122°21'0 0.6
2017-Oct-14 19:30N 37°45' W 122°21'4 7.1
2017-Oct-14 19:00N 37°48' W 122°17'0 0.3
2017-Oct-14 18:30N 37°47' W 122°17'0 0.0
2017-Oct-14 18:00N 37°47' W 122°17'0 0.0
2017-Oct-14 17:30N 37°47' W 122°17'0 0.0
2017-Oct-13 22:28N 37°47' W 122°17'3 7.0
2017-Oct-13 22:00N 37°45' W 122°20'3 6.7
2017-Oct-13 21:30N 37°48' W 122°22'713.0
2017-Oct-13 21:00N 37°54' W 122°26'1 1.4
2017-Oct-13 20:30N 37°54' W 122°27'612.1
2017-Oct-13 20:00N 37°50' W 122°22'4 2.6
2017-Oct-13 18:23N 37°47' W 122°17'0 0.0
2017-Oct-13 18:00N 37°47' W 122°17'0 0.1
2017-Oct-13 17:31N 37°47' W 122°17'2 4.6
2017-Oct-13 17:00N 37°48' W 122°20'2 4.1
2017-Oct-13 16:30N 37°48' W 122°23'1 1.7
2017-Oct-13 16:00N 37°48' W 122°24'0 0.1
2017-Oct-13 15:30N 37°48' W 122°24'1 1.6
2017-Oct-13 15:01N 37°48' W 122°23'2 4.4
2017-Oct-13 14:30N 37°48' W 122°20'2 4.7
2017-Oct-13 14:00N 37°47' W 122°17'0 0.0
2017-Oct-13 06:41N 37°47' W 122°17'2 8.5
2017-Oct-13 06:30N 37°48' W 122°19'3 6.1
2017-Oct-13 06:00N 37°45' W 122°21'3 6.8
2017-Oct-13 05:31N 37°48' W 122°18'1 0.3
2017-Oct-13 03:24N 37°47' W 122°17'4 9.4
2017-Oct-13 03:00N 37°48' W 122°22'1 3.0
2017-Oct-13 02:30N 37°48' W 122°24'5 9.8
2017-Oct-13 02:00N 37°48' W 122°18'3 6.2
2017-Oct-13 01:31N 37°48' W 122°21'1 2.7
2017-Oct-13 01:01N 37°48' W 122°20'2 3.8
2017-Oct-13 00:30N 37°46' W 122°20'2 4.9
2017-Oct-13 00:00N 37°48' W 122°18'0 0.2
2017-Oct-12 22:20N 37°47' W 122°17'3 9.1
2017-Oct-12 22:00N 37°48' W 122°21'3 5.4
2017-Oct-12 21:30N 37°45' W 122°21'0 0.2
2017-Oct-12 21:00N 37°45' W 122°21'1 1.3
2017-Oct-12 20:30N 37°46' W 122°22'3 5.6
2017-Oct-12 20:00N 37°48' W 122°19'1 2.3
2017-Oct-12 19:30N 37°47' W 122°17'2 4.6
2017-Oct-12 19:00N 37°48' W 122°20'2 3.1
2017-Oct-12 18:30N 37°46' W 122°20'3 5.6
2017-Oct-12 18:00N 37°47' W 122°17'0 0.0
2017-Oct-12 17:31N 37°47' W 122°17'0 0.0
2017-Oct-12 08:18N 37°47' W 122°17'2 8.1
2017-Oct-12 08:00N 37°48' W 122°20'1 2.9
2017-Oct-12 07:31N 37°48' W 122°18'1 0.8
2017-Oct-12 06:28N 37°47' W 122°17'3 7.0
2017-Oct-12 06:00N 37°46' W 122°21'3 6.3
2017-Oct-12 05:30N 37°47' W 122°17'0 0.0
2017-Oct-12 01:32N 37°47' W 122°17'0 0.2
2017-Oct-12 01:31N 37°47' W 122°17'0 0.7
2017-Oct-12 01:00N 37°48' W 122°18'3 5.8
2017-Oct-12 00:31N 37°45' W 122°20'3 6.1
2017-Oct-12 00:00N 37°47' W 122°17'0 0.0
2017-Oct-11 22:32N 37°47' W 122°17'0 0.0
2017-Oct-11 22:30N 37°47' W 122°17'3 5.6
2017-Oct-11 22:01N 37°46' W 122°20'0 0.0
2017-Oct-11 21:31N 37°46' W 122°20'3 5.6
2017-Oct-11 21:00N 37°47' W 122°17'0 0.0
2017-Oct-11 20:30N 37°47' W 122°17'0 0.0
2017-Oct-11 20:00N 37°47' W 122°17'0 0.0
2017-Oct-11 19:30N 37°47' W 122°17'0 0.0
2017-Oct-11 19:00N 37°47' W 122°17'3 5.9
2017-Oct-11 18:31N 37°45' W 122°20'2 4.9
2017-Oct-11 18:01N 37°48' W 122°19'1 1.1
2017-Oct-11 17:30N 37°48' W 122°20'5 9.0
2017-Oct-11 17:00N 37°43' W 122°21'5 0.3
2017-Oct-11 00:00N 37°48' W 122°19'3 6.9
2017-Oct-10 23:30N 37°47' W 122°23'5 9.6
2017-Oct-10 23:00N 37°43' W 122°20'5 9.8
2017-Oct-10 22:30N 37°48' W 122°18'0 0.2
2017-Oct-10 20:52N 37°47' W 122°17'0 0.1
2017-Oct-10 20:30N 37°47' W 122°17'5 9.3
2017-Oct-10 20:00N 37°47' W 122°23'5 9.4
2017-Oct-10 19:31N 37°43' W 122°20'5 9.5
2017-Oct-10 19:00N 37°48' W 122°18'1 1.0
2017-Oct-10 18:03N 37°47' W 122°17'0 0.0
2017-Oct-10 18:00N 37°47' W 122°17'3 6.7
2017-Oct-10 17:30N 37°48' W 122°22'0 0.0
2017-Oct-10 17:00N 37°48' W 122°22'0 0.2
2017-Oct-10 16:30N 37°48' W 122°22'0 0.1
2017-Oct-10 16:00N 37°48' W 122°22'0 0.0
2017-Oct-10 15:30N 37°48' W 122°22'3 5.2
2017-Oct-10 15:00N 37°45' W 122°20'3 3.2
2017-Oct-10 14:00N 37°47' W 122°17'0 0.0
2017-Oct-10 01:04N 37°47' W 122°17'0 1.0
2017-Oct-10 01:00N 37°47' W 122°17'3 6.7
2017-Oct-10 00:30N 37°45' W 122°20'3 6.9
2017-Oct-10 00:01N 37°48' W 122°17'0 0.0
2017-Oct-09 18:21N 37°47' W 122°17'2 5.9
2017-Oct-09 18:01N 37°48' W 122°20'5 9.7
2017-Oct-09 17:30N 37°43' W 122°20'5 9.5
2017-Oct-09 17:00N 37°48' W 122°18'0 0.8
2017-Oct-09 16:30N 37°47' W 122°17'0 0.0
2017-Oct-08 14:49N 37°47' W 122°17'2 5.5
2017-Oct-08 14:30N 37°48' W 122°19'2 5.0
2017-Oct-08 14:00N 37°45' W 122°20'3 6.2
2017-Oct-08 13:30N 37°47' W 122°17'0 0.0
2017-Oct-08 13:01N 37°47' W 122°17'0 0.0
2017-Oct-08 03:21N 37°47' W 122°17'2 7.0
2017-Oct-08 03:00N 37°47' W 122°20'2 4.5
2017-Oct-08 02:30N 37°47' W 122°23'0 0.0
2017-Oct-08 02:00N 37°47' W 122°23'2 4.8
2017-Oct-08 01:30N 37°45' W 122°21'2 4.8
2017-Oct-08 01:00N 37°47' W 122°23'0 0.3
2017-Oct-08 00:30N 37°47' W 122°23'0 0.0
2017-Oct-08 00:00N 37°47' W 122°23'3 5.0
2017-Oct-07 23:30N 37°45' W 122°21'0 0.4
2017-Oct-07 23:00N 37°45' W 122°21'4 0.8
2017-Oct-07 18:11N 37°47' W 122°17'1 4.1
2017-Oct-07 18:00N 37°48' W 122°18'4 8.7
2017-Oct-07 17:30N 37°44' W 122°21'0 0.3
2017-Oct-07 17:00N 37°43' W 122°21'2 4.6
2017-Oct-07 16:30N 37°46' W 122°20'3 6.1
2017-Oct-07 16:01N 37°47' W 122°17'0 0.0
2017-Oct-07 15:30N 37°47' W 122°17'0 0.0
2017-Oct-07 15:01N 37°47' W 122°17'0 0.0
2017-Oct-06 22:42N 37°47' W 122°17'0 0.0
2017-Oct-06 22:30N 37°47' W 122°17'3 6.5
2017-Oct-06 22:01N 37°45' W 122°20'0 0.1
2017-Oct-06 21:30N 37°45' W 122°20'0 0.1
2017-Oct-06 21:00N 37°45' W 122°20'0 0.3
2017-Oct-06 20:31N 37°45' W 122°20'1 2.3
2017-Oct-06 20:00N 37°46' W 122°20'2 4.6
2017-Oct-06 19:30N 37°48' W 122°18'1 1.7
2017-Oct-06 19:00N 37°47' W 122°17'0 0.1
2017-Oct-06 18:30N 37°47' W 122°17'3 6.8
2017-Oct-06 18:00N 37°45' W 122°20'1 2.5
2017-Oct-06 17:30N 37°45' W 122°21'3 5.9
2017-Oct-06 17:00N 37°48' W 122°19'1 0.9
2017-Oct-06 15:32N 37°47' W 122°17'0 0.2
2017-Oct-06 15:31N 37°47' W 122°17'4 7.6
2017-Oct-06 15:00N 37°46' W 122°21'2 3.6
2017-Oct-06 14:30N 37°47' W 122°23'5 9.2
2017-Oct-06 14:00N 37°47' W 122°17'0 0.0
2017-Oct-06 13:30N 37°47' W 122°17'0 0.0
2017-Oct-06 13:01N 37°47' W 122°17'0 0.0
2017-Oct-06 12:31N 37°47' W 122°17'2 3.9
2017-Oct-06 12:00N 37°48' W 122°20'3 5.2
2017-Oct-06 11:30N 37°46' W 122°21'4 7.5
2017-Oct-06 11:01N 37°47' W 122°17'0 0.0
2017-Oct-06 08:36N 37°47' W 122°17'0 2.6
2017-Oct-06 08:30N 37°48' W 122°18'4 7.2
2017-Oct-06 08:00N 37°45' W 122°21'2 4.1
2017-Oct-06 07:31N 37°47' W 122°20'2 4.9
2017-Oct-06 07:01N 37°47' W 122°17'0 0.0
2017-Oct-06 03:15N 37°47' W 122°17'2 9.6
2017-Oct-06 03:00N 37°47' W 122°20'2 4.9
2017-Oct-06 02:30N 37°47' W 122°23'3 6.4
2017-Oct-06 02:01N 37°48' W 122°19'2 0.4
2017-Oct-05 21:56N 37°47' W 122°17'2 4.7
2017-Oct-05 21:31N 37°48' W 122°20'3 6.7
2017-Oct-05 21:00N 37°45' W 122°21'4 8.1
2017-Oct-05 20:30N 37°47' W 122°17'4 8.5
2017-Oct-05 20:00N 37°44' W 122°21'0 0.2
2017-Oct-05 19:30N 37°44' W 122°21'0 0.2
2017-Oct-05 19:00N 37°44' W 122°21'3 5.3
2017-Oct-05 18:30N 37°47' W 122°20'2 5.0
2017-Oct-05 18:01N 37°47' W 122°17'0 0.0
2017-Oct-05 17:30N 37°47' W 122°17'0 0.0
2017-Oct-05 06:41N 37°48' W 122°17'211.9
2017-Oct-05 06:30N 37°48' W 122°20'3 5.6
2017-Oct-05 06:00N 37°49' W 122°23'3 6.6
2017-Oct-05 05:30N 37°48' W 122°19'2 3.4
2017-Oct-05 05:00N 37°47' W 122°17'0 0.0
2017-Oct-05 00:52N 37°47' W 122°17'3 8.0
2017-Oct-05 00:30N 37°48' W 122°21'713.1
2017-Oct-05 00:00N 37°54' W 122°24'1 2.8
2017-Oct-04 23:30N 37°55' W 122°22'0 0.2
2017-Oct-04 23:00N 37°55' W 122°22'3 6.8
2017-Oct-04 22:30N 37°52' W 122°24'612.8
2017-Oct-04 22:00N 37°48' W 122°18'0 0.9
2017-Oct-04 21:30N 37°47' W 122°17'  

Dump ship's entire track history